KMRY/MRY METAR and TAF weather

Enter ICAO airport designator
Station Type Date Time Source
KMRY METAR 2022/01/23 11:54 UTC NOAA

KMRY 231154Z AUTO 11005KT 10SM FU CLR 06/M01 A3021 RMK AO2 SLP241 T00561011 10100 20056 53010


Station Type Date Time Source
KMRY Decoded METAR 2022/01/23 11:54 UTC NOAA

MONTEREY PENINSULA AIRPORT, CA, United States (KMRY) 36-35N 121-51W 66M
Jan 23, 2022 - 06:54 AM EST / 2022.01.23 1154 UTC
Wind: from the ESE (110 degrees) at 6 MPH (5 KT):0
Visibility: 10 mile(s):0
Sky conditions: clear
Weather: smoke
Temperature: 42.1 F (5.6 C)
Dew Point: 30.0 F (-1.1 C)
Relative Humidity: 61%
Pressure (altimeter): 30.21 in. Hg (1023 hPa)
Pressure tendency: 0.03 inches (1.0 hPa) higher than three hours ago
ob: KMRY 231154Z AUTO 11005KT 10SM FU CLR 06/M01 A3021 RMK AO2 SLP241 T00561011 10100 20056 53010
cycle: 12

Station Type Date Time Source
KMRY TAF 2022/01/23 12:33 UTC NOAA

TAF KMRY 231131Z 2312/2412 12005KT P6SM SKC
FM232100 30005KT P6SM SKC
FM240300 11003KT P6SM SKC

Example: see airport list